Time;durP1;ratioP1;P1;durP2;ratioP2;P2;SDS_P1;SDS_P2;PMS_P1;PMS_P2;Temp;Humidity;BMP_temperature;BMP_pressure;BME280_temperature;BME280_humidity;BME280_pressure;Samples;Min_cycle;Max_cycle;Signal;HPM_P1;HPM_P2
2022/12/28 00:01:20;;;;;;;6.15;2.03;;;6.70;88.80;;;;;;9172334;19;20058;-70
2022/12/28 00:04:26;;;;;;;10.88;2.95;;;6.70;88.70;;;;;;9167032;19;20011;-70
2022/12/28 00:07:30;;;;;;;11.25;2.58;;;6.70;88.80;;;;;;9170306;19;20018;-71
2022/12/28 00:10:33;;;;;;;9.18;2.58;;;6.70;88.70;;;;;;9175383;19;20479;-70
2022/12/28 00:13:59;;;;;;;7.57;2.88;;;6.70;88.80;;;;;;9179158;19;20512;-70
2022/12/28 00:17:03;;;;;;;8.05;2.47;;;6.70;88.80;;;;;;9177782;19;20018;-69
2022/12/28 00:20:10;;;;;;;12.80;2.72;;;6.70;88.90;;;;;;9173916;19;20267;-67
2022/12/28 00:23:14;;;;;;;7.55;2.25;;;6.70;88.80;;;;;;9180825;19;20009;-69
2022/12/28 00:26:17;;;;;;;7.88;2.60;;;6.70;88.90;;;;;;9182039;19;20019;-68
2022/12/28 00:29:21;;;;;;;6.65;2.75;;;6.70;88.90;;;;;;9182940;19;20487;-68
2022/12/28 00:32:26;;;;;;;9.40;2.72;;;6.70;88.90;;;;;;9181247;19;20551;-68
2022/12/28 00:35:32;;;;;;;10.05;2.60;;;6.70;89.00;;;;;;9181138;19;20017;-69
2022/12/28 00:38:38;;;;;;;5.13;2.40;;;6.80;89.00;;;;;;9179467;19;20017;-68
2022/12/28 00:41:42;;;;;;;6.32;2.13;;;6.70;89.00;;;;;;9178251;19;20022;-67
2022/12/28 00:44:46;;;;;;;21.63;3.00;;;6.80;89.00;;;;;;9163695;19;20815;-67
2022/12/28 00:47:52;;;;;;;7.57;2.50;;;6.80;89.10;;;;;;9176739;19;20018;-69
2022/12/28 00:51:04;;;;;;;4.75;2.58;;;6.70;89.00;;;;;;9180269;19;20044;-69
2022/12/28 00:54:08;;;;;;;22.20;4.53;;;6.70;89.00;;;;;;9179634;19;20026;-69
2022/12/28 00:57:12;;;;;;;;;;;6.80;89.10;;;;;;9177448;19;20021;-69
2022/12/28 01:00:17;;;;;;;8.88;2.42;;;6.80;89.00;;;;;;9167232;19;19948;-69
2022/12/28 01:03:21;;;;;;;7.93;2.95;;;6.80;89.00;;;;;;9168294;19;20019;-69
2022/12/28 01:06:28;;;;;;;19.10;3.78;;;6.80;89.10;;;;;;9179756;19;20388;-69
2022/12/28 01:09:31;;;;;;;7.72;2.60;;;6.80;89.00;;;;;;9182676;19;20010;-69
2022/12/28 01:12:35;;;;;;;9.80;3.47;;;6.80;89.10;;;;;;9181981;19;20018;-69
2022/12/28 01:15:41;;;;;;;10.73;2.60;;;6.70;89.00;;;;;;9182025;19;20024;-69
2022/12/28 01:18:46;;;;;;;12.52;3.28;;;6.80;89.10;;;;;;9181314;19;20018;-68
2022/12/28 01:21:53;;;;;;;7.90;3.00;;;6.80;89.10;;;;;;9177025;19;20085;-67
2022/12/28 01:24:57;;;;;;;5.03;2.63;;;6.80;89.20;;;;;;9181059;19;20065;-68
2022/12/28 01:28:00;;;;;;;11.25;2.60;;;6.70;89.10;;;;;;9180373;19;20504;-68
2022/12/28 01:31:06;;;;;;;3.47;2.17;;;6.70;89.10;;;;;;9180697;19;20536;-68
2022/12/28 01:34:09;;;;;;;10.88;3.35;;;6.70;89.20;;;;;;9179509;19;20014;-67
2022/12/28 01:37:15;;;;;;;;;;;6.80;89.20;;;;;;9181803;19;20030;-68
2022/12/28 01:40:19;;;;;;;4.18;2.25;;;6.70;89.20;;;;;;9177700;19;19943;-68
2022/12/28 01:43:41;;;;;;;12.07;2.50;;;6.70;89.20;;;;;;9181583;19;20018;-68
2022/12/28 01:46:48;;;;;;;6.75;1.98;;;6.70;89.20;;;;;;9180828;19;20014;-69
2022/12/28 01:49:58;;;;;;;9.75;2.55;;;6.70;89.20;;;;;;9180174;19;20017;-70
2022/12/28 01:53:05;;;;;;;6.50;2.03;;;6.70;89.20;;;;;;9179213;19;20014;-69
2022/12/28 01:56:09;;;;;;;4.40;1.98;;;6.70;89.30;;;;;;9180456;19;20502;-69
2022/12/28 01:59:13;;;;;;;;;;;6.70;89.30;;;;;;9180586;19;20010;-70
2022/12/28 02:02:17;;;;;;;11.30;2.88;;;6.70;89.30;;;;;;9178585;19;19918;-69
2022/12/28 02:05:25;;;;;;;5.50;2.40;;;6.70;89.30;;;;;;9174202;19;20021;-69
2022/12/28 02:08:36;;;;;;;6.85;2.53;;;6.70;89.30;;;;;;9180456;19;20480;-68
2022/12/28 02:11:41;;;;;;;4.40;2.50;;;6.70;89.40;;;;;;9177324;19;20040;-68
2022/12/28 02:14:47;;;;;;;3.97;2.25;;;6.70;89.40;;;;;;9177848;19;20015;-70
2022/12/28 02:17:51;;;;;;;8.10;2.60;;;6.70;89.50;;;;;;9179927;19;20022;-68
2022/12/28 02:21:17;;;;;;;8.85;2.92;;;6.70;89.50;;;;;;9177471;19;20014;-70
2022/12/28 02:24:50;;;;;;;5.28;2.40;;;6.70;89.60;;;;;;9179941;19;20019;-70
2022/12/28 02:28:29;;;;;;;9.27;3.33;;;6.70;90.10;;;;;;9178648;19;20491;-69
2022/12/28 02:31:42;;;;;;;7.57;2.88;;;6.80;89.70;;;;;;9179069;19;20708;-69
2022/12/28 02:34:56;;;;;;;6.05;2.65;;;6.80;89.70;;;;;;9180002;19;20485;-69
2022/12/28 02:38:07;;;;;;;9.30;2.53;;;6.80;89.70;;;;;;9174848;19;20018;-70
2022/12/28 02:41:14;;;;;;;8.73;3.20;;;6.80;89.70;;;;;;9175700;19;20015;-69
2022/12/28 02:50:04;;;;;;;7.10;2.60;;;6.90;89.90;;;;;;9177386;19;20010;-70
2022/12/28 02:51:15;;;;;;;7.55;3.00;;;6.90;89.90;;;;;;9178062;19;20357;-69
2022/12/28 02:58:16;;;;;;;7.47;3.10;;;7.00;90.00;;;;;;9177744;19;20018;-69
2022/12/28 03:01:37;;;;;;;5.85;2.95;;;7.10;90.10;;;;;;9166685;19;20035;-69
2022/12/28 03:05:00;;;;;;;9.73;2.50;;;7.10;90.00;;;;;;9164087;19;20034;-69
2022/12/28 03:08:18;;;;;;;10.82;3.13;;;7.10;90.00;;;;;;9167836;19;20015;-70
2022/12/28 03:11:30;;;;;;;11.05;2.83;;;7.20;90.00;;;;;;9167654;19;20015;-70
2022/12/28 03:14:41;;;;;;;10.35;2.50;;;7.20;90.00;;;;;;9168150;19;20014;-69
2022/12/28 03:31:10;;;;;;;8.00;2.38;;;7.40;90.00;;;;;;9167425;19;20480;-68
2022/12/28 03:34:21;;;;;;;8.15;3.10;;;7.40;90.00;;;;;;9169374;19;20028;-70
2022/12/28 03:37:34;;;;;;;9.38;3.20;;;7.40;90.00;;;;;;9166847;19;20507;-69
2022/12/28 03:40:48;;;;;;;7.47;4.35;;;7.40;90.00;;;;;;9165020;19;20014;-69
2022/12/28 03:43:54;;;;;;;10.90;2.90;;;7.50;90.00;;;;;;9166601;19;20365;-69
2022/12/28 03:47:05;;;;;;;7.07;3.13;;;7.50;90.00;;;;;;9174382;19;20014;-68
2022/12/28 03:50:10;;;;;;;8.85;2.95;;;7.50;90.00;;;;;;9177501;19;20052;-70
2022/12/28 03:53:18;;;;;;;6.15;2.97;;;7.50;90.00;;;;;;9176621;19;20729;-69
2022/12/28 03:56:24;;;;;;;8.40;2.90;;;7.50;90.00;;;;;;9175619;19;20018;-69
2022/12/28 03:59:30;;;;;;;6.63;3.00;;;7.50;90.00;;;;;;9174963;19;20018;-68
2022/12/28 04:02:36;;;;;;;6.95;3.05;;;7.50;90.00;;;;;;9173649;19;20018;-69
2022/12/28 04:05:40;;;;;;;8.30;3.53;;;7.60;90.00;;;;;;9170806;19;20018;-70
2022/12/28 04:08:47;;;;;;;5.53;2.95;;;7.60;90.10;;;;;;9174375;19;20018;-68
2022/12/28 04:11:51;;;;;;;7.32;3.53;;;7.60;90.00;;;;;;9176158;19;20021;-69
2022/12/28 04:15:02;;;;;;;8.07;3.35;;;7.60;90.00;;;;;;9175041;19;20035;-68
2022/12/28 04:18:07;;;;;;;6.57;2.72;;;7.60;90.10;;;;;;9174508;19;20030;-67
2022/12/28 04:21:11;;;;;;;6.82;2.90;;;7.60;90.10;;;;;;9173904;19;20052;-68
2022/12/28 04:24:19;;;;;;;5.05;2.78;;;7.60;90.10;;;;;;9175296;19;20026;-68
2022/12/28 04:27:23;;;;;;;4.10;2.83;;;7.60;90.10;;;;;;9174011;19;20014;-67
2022/12/28 04:30:30;;;;;;;4.50;2.83;;;7.60;90.10;;;;;;9173961;19;20094;-67
2022/12/28 04:33:35;;;;;;;6.20;3.83;;;7.60;90.10;;;;;;9174287;19;20085;-69
2022/12/28 04:36:39;;;;;;;5.95;2.60;;;7.60;90.10;;;;;;9175780;19;20047;-69
2022/12/28 04:39:49;;;;;;;4.10;2.60;;;7.70;90.20;;;;;;9173070;19;20014;-69
2022/12/28 04:43:00;;;;;;;4.80;2.90;;;7.70;90.20;;;;;;9176466;19;20011;-69
2022/12/28 04:46:06;;;;;;;5.50;2.60;;;7.70;90.20;;;;;;9182597;19;20015;-69
2022/12/28 04:49:10;;;;;;;4.53;2.22;;;7.70;90.20;;;;;;9182679;19;20014;-69
2022/12/28 04:52:14;;;;;;;3.80;2.22;;;7.70;90.20;;;;;;9183141;19;20007;-69
2022/12/28 04:55:20;;;;;;;3.03;2.15;;;7.70;90.30;;;;;;9182042;19;20362;-67
2022/12/28 04:58:37;;;;;;;4.95;2.83;;;7.70;90.30;;;;;;9182880;19;20078;-68
2022/12/28 05:01:40;;;;;;;4.28;2.83;;;7.80;90.30;;;;;;9179300;19;20118;-67
2022/12/28 05:04:44;;;;;;;;;;;7.80;90.30;;;;;;9178423;19;20479;-67
2022/12/28 05:07:48;;;;;;;4.40;2.95;;;7.80;90.30;;;;;;9180506;19;19917;-70
2022/12/28 05:10:54;;;;;;;4.60;2.47;;;7.80;90.20;;;;;;9181792;19;20377;-69
2022/12/28 05:13:58;;;;;;;6.65;2.20;;;7.90;90.30;;;;;;9182141;19;20009;-68
2022/12/28 05:17:02;;;;;;;2.95;2.30;;;7.80;90.30;;;;;;9179680;19;20015;-67
2022/12/28 05:20:07;;;;;;;2.95;2.15;;;7.90;90.40;;;;;;9180305;19;20006;-68
2022/12/28 05:23:10;;;;;;;3.60;2.30;;;7.90;90.40;;;;;;9181724;19;20010;-68
2022/12/28 05:26:18;;;;;;;3.58;2.55;;;7.90;90.40;;;;;;9181165;19;20010;-69
2022/12/28 05:29:22;;;;;;;7.25;2.70;;;8.00;90.40;;;;;;9181745;19;20384;-69
2022/12/28 05:32:25;;;;;;;3.38;2.63;;;8.00;90.40;;;;;;9178614;19;20010;-68
2022/12/28 05:35:29;;;;;;;3.85;2.63;;;8.00;90.50;;;;;;9181343;19;20010;-68
2022/12/28 05:38:33;;;;;;;3.05;2.28;;;8.00;90.50;;;;;;9182123;19;20472;-69
2022/12/28 05:41:39;;;;;;;2.97;2.40;;;8.00;90.50;;;;;;9176687;19;20021;-68
2022/12/28 05:44:43;;;;;;;5.45;2.50;;;8.10;90.50;;;;;;9180539;19;20018;-68
2022/12/28 05:47:47;;;;;;;4.63;2.83;;;8.10;90.50;;;;;;9179975;19;20018;-68
2022/12/28 05:50:50;;;;;;;5.63;2.60;;;8.10;90.50;;;;;;9180957;19;20018;-68
2022/12/28 05:54:03;;;;;;;3.67;2.70;;;8.20;90.60;;;;;;9178719;19;20010;-69
2022/12/28 05:57:08;;;;;;;3.10;2.40;;;8.20;90.60;;;;;;9180854;19;20057;-68
2022/12/28 06:00:13;;;;;;;4.93;2.83;;;8.20;90.60;;;;;;9178509;19;20015;-68
2022/12/28 06:03:17;;;;;;;6.03;2.58;;;8.30;90.60;;;;;;9171432;19;20018;-69
2022/12/28 06:06:21;;;;;;;;;;;8.30;90.60;;;;;;9178754;19;20362;-69
2022/12/28 06:09:25;;;;;;;6.57;2.93;;;8.30;90.60;;;;;;9178727;19;19954;-69
2022/12/28 06:12:31;;;;;;;5.00;2.58;;;8.30;90.50;;;;;;9179954;19;20022;-70
2022/12/28 06:15:35;;;;;;;4.30;2.90;;;8.30;90.60;;;;;;9179836;19;20678;-67
2022/12/28 06:18:38;;;;;;;4.13;2.83;;;8.40;90.60;;;;;;9177450;19;20145;-68
2022/12/28 06:21:43;;;;;;;6.93;3.40;;;8.40;90.70;;;;;;9176402;19;20047;-70
2022/12/28 06:24:46;;;;;;;3.50;2.78;;;8.40;90.70;;;;;;9180269;19;20040;-68
2022/12/28 06:27:52;;;;;;;3.92;2.92;;;8.50;90.70;;;;;;9177409;19;20073;-69
2022/12/28 06:31:03;;;;;;;3.13;2.67;;;8.50;90.70;;;;;;9178522;19;20026;-68
2022/12/28 06:34:09;;;;;;;7.53;3.00;;;8.50;90.70;;;;;;9177130;19;20014;-68
2022/12/28 06:37:12;;;;;;;3.70;2.65;;;8.60;90.70;;;;;;9172737;19;20018;-68
2022/12/28 06:40:16;;;;;;;8.55;2.90;;;8.60;90.70;;;;;;9168920;19;20026;-68
2022/12/28 06:43:22;;;;;;;;;;;8.60;90.70;;;;;;9173628;19;20044;-67
2022/12/28 06:46:27;;;;;;;5.15;2.85;;;8.60;90.70;;;;;;9171173;19;19930;-67
2022/12/28 06:49:31;;;;;;;4.90;2.50;;;8.60;90.70;;;;;;9169771;19;20014;-68
2022/12/28 06:52:35;;;;;;;5.50;2.92;;;8.60;90.70;;;;;;9171896;19;20348;-68
2022/12/28 06:55:38;;;;;;;4.82;2.92;;;8.70;90.80;;;;;;9175869;19;20584;-69
2022/12/28 06:58:45;;;;;;;4.35;2.55;;;8.70;90.80;;;;;;9177598;19;20403;-69
2022/12/28 07:01:49;;;;;;;4.68;2.90;;;8.70;90.80;;;;;;9175504;19;20109;-69
2022/12/28 07:04:53;;;;;;;;;;;8.70;90.80;;;;;;9177179;19;20021;-67
2022/12/28 07:07:56;;;;;;;4.03;2.72;;;8.70;90.80;;;;;;9179750;19;19974;-68
2022/12/28 07:11:04;;;;;;;3.72;2.90;;;8.80;90.70;;;;;;9178881;19;20026;-68
2022/12/28 07:14:10;;;;;;;2.70;2.45;;;8.80;90.80;;;;;;9179285;19;21037;-67
2022/12/28 07:17:13;;;;;;;3.92;2.58;;;8.80;90.80;;;;;;9178697;19;20018;-68
2022/12/28 07:20:17;;;;;;;3.55;2.50;;;8.80;90.80;;;;;;9176735;19;20483;-68
2022/12/28 07:23:21;;;;;;;;;;;8.80;90.80;;;;;;9177608;19;20017;-69
2022/12/28 07:26:26;;;;;;;2.70;2.17;;;8.80;90.80;;;;;;9178032;19;19910;-68
2022/12/28 07:29:32;;;;;;;3.13;2.40;;;8.90;90.80;;;;;;9175944;19;20014;-68
2022/12/28 07:32:37;;;;;;;2.70;2.03;;;8.90;90.80;;;;;;9177184;19;20022;-68
2022/12/28 07:35:41;;;;;;;11.18;2.75;;;8.90;90.80;;;;;;9177488;19;20014;-69
2022/12/28 07:38:45;;;;;;;2.60;2.40;;;8.90;90.80;;;;;;9178434;19;20049;-68
2022/12/28 07:41:49;;;;;;;3.40;2.33;;;8.90;90.90;;;;;;9174798;19;20019;-68
2022/12/28 07:44:59;;;;;;;8.98;2.50;;;9.00;90.90;;;;;;9175474;19;20094;-69
2022/12/28 07:48:03;;;;;;;3.00;2.33;;;9.00;90.90;;;;;;9177010;19;20015;-69
2022/12/28 07:51:09;;;;;;;3.17;2.63;;;9.00;90.90;;;;;;9175409;19;20360;-70
2022/12/28 07:54:13;;;;;;;4.72;2.70;;;9.00;90.90;;;;;;9177512;19;20014;-68
2022/12/28 07:57:16;;;;;;;2.42;2.08;;;9.10;90.90;;;;;;9177578;19;20053;-68
2022/12/28 08:00:22;;;;;;;3.22;2.53;;;9.10;90.90;;;;;;9175297;19;20021;-68
2022/12/28 08:03:26;;;;;;;6.60;2.15;;;9.10;90.90;;;;;;9168782;19;20092;-68
2022/12/28 08:06:33;;;;;;;5.57;2.72;;;9.10;90.90;;;;;;9176774;19;20014;-68
2022/12/28 08:09:37;;;;;;;4.82;2.80;;;9.10;91.00;;;;;;9175993;19;20482;-68
2022/12/28 08:12:41;;;;;;;3.90;2.83;;;9.10;91.00;;;;;;9176729;19;20022;-69
2022/12/28 08:15:54;;;;;;;3.72;2.33;;;9.10;91.00;;;;;;9176227;19;20396;-69
2022/12/28 08:18:58;;;;;;;3.05;2.40;;;9.10;91.00;;;;;;9175005;19;20054;-68
2022/12/28 08:22:02;;;;;;;4.00;2.63;;;9.10;91.00;;;;;;9173193;19;20365;-69
2022/12/28 08:25:06;;;;;;;;;;;9.20;91.00;;;;;;9177241;19;20472;-69
2022/12/28 08:28:10;;;;;;;4.27;2.70;;;9.20;91.00;;;;;;9176179;19;19918;-69
2022/12/28 08:31:18;;;;;;;3.90;2.40;;;9.20;90.90;;;;;;9180001;19;20097;-69
2022/12/28 08:34:25;;;;;;;3.60;2.28;;;9.20;91.00;;;;;;9182183;19;20352;-70
2022/12/28 08:37:29;;;;;;;3.20;2.50;;;9.20;91.00;;;;;;9183924;19;20026;-69
2022/12/28 08:40:33;;;;;;;5.65;2.58;;;9.30;91.00;;;;;;9182896;19;20348;-70
2022/12/28 08:43:37;;;;;;;2.53;2.33;;;9.30;91.10;;;;;;9182800;19;20018;-68
2022/12/28 08:46:42;;;;;;;4.68;2.50;;;9.30;91.10;;;;;;9184520;19;20053;-69
2022/12/28 08:49:47;;;;;;;2.38;2.17;;;9.30;91.10;;;;;;9181987;19;20018;-69
2022/12/28 08:52:51;;;;;;;2.63;2.22;;;9.30;91.10;;;;;;9182562;19;20014;-69
2022/12/28 08:55:55;;;;;;;4.05;2.58;;;9.30;91.10;;;;;;9181808;19;20013;-69
2022/12/28 08:59:00;;;;;;;2.38;2.17;;;9.40;91.10;;;;;;9182229;19;20621;-69
2022/12/28 09:02:05;;;;;;;3.03;2.10;;;9.40;91.10;;;;;;9179590;19;20030;-69
2022/12/28 09:05:10;;;;;;;4.32;2.10;;;9.40;91.10;;;;;;9178264;19;20021;-69
2022/12/28 09:08:14;;;;;;;2.70;2.17;;;9.40;91.10;;;;;;9180710;19;20011;-68
2022/12/28 09:11:18;;;;;;;3.92;2.42;;;9.40;91.10;;;;;;9181366;19;20448;-70
2022/12/28 09:14:22;;;;;;;3.08;2.40;;;9.40;91.10;;;;;;9181714;19;20358;-69
2022/12/28 09:17:29;;;;;;;3.30;2.17;;;9.40;91.20;;;;;;9179580;19;20018;-68
2022/12/28 09:20:35;;;;;;;5.10;2.10;;;9.50;91.20;;;;;;9181225;19;20027;-68
2022/12/28 09:23:39;;;;;;;3.40;2.30;;;9.50;91.20;;;;;;9183177;19;20026;-68
2022/12/28 09:26:43;;;;;;;2.72;2.40;;;9.50;91.20;;;;;;9181619;19;20438;-68
2022/12/28 09:29:46;;;;;;;2.95;2.55;;;9.50;91.20;;;;;;9176567;19;20039;-70
2022/12/28 09:33:57;;;;;;;3.67;2.67;;;9.50;91.20;;;;;;9179983;19;20019;-69
2022/12/28 09:36:18;;;;;;;4.13;2.42;;;9.60;91.20;;;;;;9181036;19;20047;-69
2022/12/28 09:39:23;;;;;;;2.80;2.20;;;9.60;91.20;;;;;;9180952;19;20349;-69
2022/12/28 09:42:30;;;;;;;2.42;2.10;;;9.60;91.20;;;;;;9174464;19;20371;-69
2022/12/28 09:45:34;;;;;;;2.20;2.00;;;9.60;91.20;;;;;;9179423;19;20011;-70
2022/12/28 09:48:41;;;;;;;4.00;2.42;;;9.60;91.20;;;;;;9181582;19;20101;-69
2022/12/28 09:51:56;;;;;;;2.28;2.08;;;9.60;91.20;;;;;;9179911;19;20791;-69
2022/12/28 09:55:07;;;;;;;2.67;2.15;;;9.60;91.20;;;;;;9178084;19;20423;-68
2022/12/28 09:58:15;;;;;;;3.58;2.40;;;9.70;91.30;;;;;;9175609;19;20014;-68
2022/12/28 10:01:20;;;;;;;2.38;2.17;;;9.70;91.30;;;;;;9178079;19;20356;-69
2022/12/28 10:04:26;;;;;;;2.85;1.83;;;9.70;91.20;;;;;;9173617;19;20023;-69
2022/12/28 10:07:30;;;;;;;2.05;1.85;;;9.70;91.30;;;;;;9177039;19;20539;-69
2022/12/28 10:10:34;;;;;;;4.25;2.08;;;9.70;91.30;;;;;;9177468;19;20019;-69
2022/12/28 10:13:40;;;;;;;4.50;2.33;;;9.70;91.30;;;;;;9172246;19;20018;-69
2022/12/28 10:16:59;;;;;;;2.53;2.00;;;9.80;91.30;;;;;;9178706;19;20014;-68
2022/12/28 10:20:06;;;;;;;3.28;1.70;;;9.80;91.30;;;;;;9175698;19;20352;-68
2022/12/28 10:23:14;;;;;;;3.47;1.92;;;9.80;91.30;;;;;;9175469;19;20026;-70
2022/12/28 10:26:20;;;;;;;1.70;1.60;;;9.80;91.30;;;;;;9173241;19;20014;-68
2022/12/28 10:29:26;;;;;;;3.28;1.60;;;9.90;91.30;;;;;;9178854;19;20483;-69
2022/12/28 10:32:49;;;;;;;3.13;1.77;;;9.80;91.30;;;;;;9173973;19;20014;-70
2022/12/28 10:35:56;;;;;;;1.60;1.42;;;9.90;91.30;;;;;;9173364;19;20468;-69
2022/12/28 10:39:01;;;;;;;1.30;1.20;;;9.90;91.30;;;;;;9172958;19;20014;-69
2022/12/28 10:42:05;;;;;;;2.92;1.50;;;9.90;91.30;;;;;;9169552;19;20019;-69
2022/12/28 10:45:22;;;;;;;1.35;1.25;;;9.90;91.30;;;;;;9171401;19;20509;-69
2022/12/28 10:48:28;;;;;;;2.75;1.50;;;9.90;91.30;;;;;;9171764;19;20010;-69
2022/12/28 10:51:36;;;;;;;3.22;1.60;;;9.90;91.30;;;;;;9170294;19;20014;-70
2022/12/28 10:54:40;;;;;;;3.47;1.10;;;9.90;91.30;;;;;;9169958;19;20416;-70
2022/12/28 10:57:44;;;;;;;1.52;1.23;;;9.90;91.30;;;;;;9167219;19;20995;-69
2022/12/28 11:01:18;;;;;;;3.23;1.40;;;9.90;91.30;;;;;;9166907;19;20022;-69
2022/12/28 11:04:25;;;;;;;2.33;1.20;;;9.90;91.30;;;;;;9164217;19;20937;-69
2022/12/28 11:07:33;;;;;;;1.30;1.20;;;10.00;91.30;;;;;;9166401;19;20011;-69
2022/12/28 11:10:39;;;;;;;1.65;1.30;;;10.00;91.30;;;;;;9165532;19;20014;-70
2022/12/28 11:13:43;;;;;;;1.83;1.30;;;10.00;91.30;;;;;;9167031;19;20019;-69
2022/12/28 11:16:47;;;;;;;3.33;1.88;;;10.00;91.30;;;;;;9167154;19;20030;-69
2022/12/28 11:19:51;;;;;;;;;;;10.00;91.30;;;;;;9157668;19;20024;-70
2022/12/28 11:22:58;;;;;;;1.73;1.38;;;10.00;91.30;;;;;;9155345;19;20017;-70
2022/12/28 11:26:02;;;;;;;2.22;1.17;;;10.00;91.30;;;;;;9165784;19;20007;-70
2022/12/28 11:29:06;;;;;;;8.68;1.45;;;10.00;91.30;;;;;;9168040;19;20039;-71
2022/12/28 11:32:16;;;;;;;;;;;10.00;91.30;;;;;;9169547;19;20030;-69
2022/12/28 11:35:22;;;;;;;1.75;1.20;;;10.00;91.30;;;;;;9169689;19;19922;-68
2022/12/28 11:38:42;;;;;;;1.55;1.25;;;10.00;91.30;;;;;;9170532;19;20043;-68
2022/12/28 11:41:49;;;;;;;1.88;1.42;;;10.10;91.40;;;;;;9166627;19;20508;-69
2022/12/28 11:45:15;;;;;;;2.30;1.27;;;10.00;91.30;;;;;;9161795;19;20031;-69
2022/12/28 11:48:46;;;;;;;1.40;1.20;;;10.10;91.60;;;;;;9170218;19;20011;-69
2022/12/28 11:52:26;;;;;;;2.45;1.30;;;10.10;91.40;;;;;;9168597;19;20015;-68
2022/12/28 11:55:48;;;;;;;1.45;1.30;;;10.10;91.40;;;;;;9170352;19;20387;-68
2022/12/28 11:59:25;;;;;;;1.73;1.10;;;10.00;91.40;;;;;;9174683;19;20022;-68
2022/12/28 12:02:41;;;;;;;1.70;1.45;;;10.00;91.40;;;;;;9170887;19;20047;-69
2022/12/28 12:05:50;;;;;;;1.55;1.45;;;10.10;91.40;;;;;;9168620;19;20017;-69
2022/12/28 12:08:54;;;;;;;1.30;1.20;;;10.10;91.40;;;;;;9183140;19;20013;-68
2022/12/28 12:12:02;;;;;;;1.50;1.20;;;10.10;91.40;;;;;;9180172;19;20033;-69
2022/12/28 12:15:13;;;;;;;1.63;1.40;;;10.10;91.40;;;;;;9183476;19;20018;-69
2022/12/28 12:18:21;;;;;;;2.78;1.45;;;10.10;91.40;;;;;;9181736;19;20069;-69
2022/12/28 12:21:35;;;;;;;1.40;1.20;;;10.10;91.40;;;;;;9179480;19;20488;-69
2022/12/28 12:24:48;;;;;;;1.38;1.23;;;10.10;91.40;;;;;;9182077;19;20044;-69
2022/12/28 12:27:58;;;;;;;1.35;1.25;;;10.10;91.40;;;;;;9182695;19;20041;-70
2022/12/28 12:31:05;;;;;;;1.45;1.00;;;10.20;91.40;;;;;;9180694;19;20007;-70
2022/12/28 12:34:15;;;;;;;1.02;1.00;;;10.20;91.40;;;;;;9182370;19;20059;-69
2022/12/28 12:37:37;;;;;;;;;;;10.20;91.50;;;;;;9183796;19;20014;-69
2022/12/28 12:41:04;;;;;;;3.20;1.17;;;10.10;91.40;;;;;;9178836;19;19950;-70
2022/12/28 12:44:23;;;;;;;1.27;1.00;;;10.10;91.40;;;;;;9181266;19;20010;-70
2022/12/28 12:47:54;;;;;;;2.97;1.48;;;10.20;91.40;;;;;;9182621;19;20014;-69
2022/12/28 12:51:20;;;;;;;3.00;1.30;;;10.20;91.40;;;;;;9182928;19;20018;-70
2022/12/28 12:54:36;;;;;;;1.40;1.13;;;10.20;91.40;;;;;;9182728;19;20046;-69
2022/12/28 12:57:51;;;;;;;4.97;2.20;;;10.20;91.40;;;;;;9177415;19;20022;-69
2022/12/28 13:01:15;;;;;;;1.75;1.10;;;10.20;91.40;;;;;;9172339;19;20018;-69
2022/12/28 13:04:22;;;;;;;2.40;1.17;;;10.20;91.50;;;;;;9170931;19;20043;-68
2022/12/28 13:07:28;;;;;;;4.30;1.30;;;10.20;91.40;;;;;;9175358;19;20014;-69
2022/12/28 13:10:35;;;;;;;3.72;1.20;;;10.20;91.40;;;;;;9176935;19;20019;-68
2022/12/28 13:13:41;;;;;;;2.30;1.10;;;10.20;91.50;;;;;;9178001;19;20048;-68
2022/12/28 13:16:49;;;;;;;1.80;1.30;;;10.20;91.40;;;;;;9178358;19;20029;-68
2022/12/28 13:20:08;;;;;;;2.63;1.08;;;10.20;91.50;;;;;;9179985;19;20025;-71
2022/12/28 13:23:17;;;;;;;3.72;1.23;;;10.20;91.40;;;;;;9180280;19;20022;-70
2022/12/28 13:26:26;;;;;;;1.38;1.20;;;10.20;91.50;;;;;;9174756;19;20011;-68
2022/12/28 13:29:36;;;;;;;1.00;1.00;;;10.20;91.40;;;;;;9173707;19;20015;-69
2022/12/28 13:32:51;;;;;;;5.38;1.52;;;10.20;91.40;;;;;;9176276;19;20086;-70
2022/12/28 13:36:06;;;;;;;4.00;1.40;;;10.20;91.40;;;;;;9174998;19;20479;-69
2022/12/28 13:39:14;;;;;;;1.25;1.10;;;10.30;91.50;;;;;;9175486;19;20019;-69
2022/12/28 13:42:20;;;;;;;4.45;1.38;;;10.30;91.40;;;;;;9176462;19;20047;-70
2022/12/28 13:45:24;;;;;;;3.72;1.30;;;10.30;91.40;;;;;;9180757;19;20735;-69
2022/12/28 13:48:32;;;;;;;3.53;1.83;;;10.20;91.40;;;;;;9179137;19;20014;-68
2022/12/28 13:51:39;;;;;;;3.35;1.42;;;10.20;91.40;;;;;;9180159;19;20015;-68
2022/12/28 13:54:48;;;;;;;4.68;1.50;;;10.20;91.40;;;;;;9181045;19;20014;-68
2022/12/28 13:57:56;;;;;;;5.72;1.63;;;10.20;91.40;;;;;;9177966;19;20019;-67
2022/12/28 14:01:08;;;;;;;3.42;1.73;;;10.20;91.40;;;;;;9178877;19;20025;-69
2022/12/28 14:04:17;;;;;;;3.80;1.60;;;10.20;91.70;;;;;;9176075;19;20398;-70
2022/12/28 14:07:41;;;;;;;6.28;1.58;;;10.20;91.40;;;;;;9180161;19;20018;-69
2022/12/28 14:10:47;;;;;;;5.22;1.80;;;10.20;91.40;;;;;;9179908;19;20393;-68
2022/12/28 14:13:51;;;;;;;5.13;1.67;;;10.20;91.40;;;;;;9180324;19;20015;-67
2022/12/28 14:16:55;;;;;;;5.18;1.70;;;10.20;91.40;;;;;;9180847;19;20017;-69
2022/12/28 14:20:01;;;;;;;13.45;2.25;;;10.20;91.40;;;;;;9178899;19;20011;-70
2022/12/28 14:23:20;;;;;;;5.45;2.17;;;10.20;91.40;;;;;;9175699;19;20011;-69
2022/12/28 14:26:25;;;;;;;6.57;1.63;;;10.20;91.30;;;;;;9178912;19;20010;-69
2022/12/28 14:29:31;;;;;;;6.97;2.10;;;10.20;91.30;;;;;;9178316;19;20014;-69
2022/12/28 14:32:36;;;;;;;4.30;1.92;;;10.20;91.30;;;;;;9179670;19;20015;-69
2022/12/28 14:35:51;;;;;;;10.75;2.22;;;10.20;91.30;;;;;;9177894;19;20074;-68
2022/12/28 14:38:57;;;;;;;6.57;2.17;;;10.20;91.30;;;;;;9178200;19;20047;-70
2022/12/28 14:42:19;;;;;;;6.93;1.90;;;10.20;91.30;;;;;;9176839;19;20006;-67
2022/12/28 14:45:35;;;;;;;2.35;1.58;;;10.20;91.30;;;;;;9176825;19;20018;-68
2022/12/28 14:48:59;;;;;;;10.70;3.13;;;10.20;91.30;;;;;;9178719;19;20035;-67
2022/12/28 14:52:43;;;;;;;6.82;2.00;;;10.20;91.30;;;;;;9177995;19;20010;-68
2022/12/28 14:55:58;;;;;;;4.13;1.97;;;10.20;91.30;;;;;;9178541;19;20468;-69
2022/12/28 14:59:02;;;;;;;5.78;1.92;;;10.10;91.30;;;;;;9177016;19;20010;-69
2022/12/28 15:02:07;;;;;;;5.65;2.05;;;10.20;91.30;;;;;;9175631;19;20476;-69
2022/12/28 15:05:50;;;;;;;7.07;2.63;;;10.10;91.60;;;;;;9172850;19;20140;-67
2022/12/28 15:08:57;;;;;;;7.85;1.98;;;10.10;91.30;;;;;;9175824;19;20496;-70
2022/12/28 15:12:12;;;;;;;11.55;2.50;;;10.10;91.30;;;;;;9177857;19;20476;-69
2022/12/28 15:15:18;;;;;;;7.15;2.22;;;10.10;91.30;;;;;;9172617;19;20078;-69
2022/12/28 15:18:22;;;;;;;4.72;2.38;;;10.10;91.30;;;;;;9177969;19;20014;-68
2022/12/28 15:21:26;;;;;;;9.65;2.35;;;10.10;91.30;;;;;;9173395;19;20011;-68
2022/12/28 15:24:32;;;;;;;6.40;2.40;;;10.10;91.30;;;;;;9174741;19;20345;-69
2022/12/28 15:27:38;;;;;;;6.60;2.83;;;10.10;91.20;;;;;;9169581;19;20011;-68
2022/12/28 15:30:42;;;;;;;7.80;2.70;;;10.10;91.20;;;;;;9167298;19;20522;-68
2022/12/28 15:33:47;;;;;;;8.73;2.78;;;10.10;91.20;;;;;;9169674;19;20027;-69
2022/12/28 15:36:51;;;;;;;8.32;3.55;;;10.10;91.20;;;;;;9169122;19;20575;-70
2022/12/28 15:39:57;;;;;;;7.05;2.28;;;10.10;91.20;;;;;;9167566;19;20018;-70
2022/12/28 15:43:02;;;;;;;5.40;2.22;;;10.10;91.20;;;;;;9174871;19;20082;-71
2022/12/28 15:46:06;;;;;;;5.30;1.95;;;10.10;91.10;;;;;;9176654;19;20015;-68
2022/12/28 15:49:13;;;;;;;5.15;1.90;;;10.10;91.10;;;;;;9176625;19;20014;-68
2022/12/28 15:52:17;;;;;;;8.85;1.52;;;10.10;91.10;;;;;;9175782;19;20022;-68
2022/12/28 15:55:23;;;;;;;6.05;1.80;;;10.10;91.10;;;;;;9176213;19;20019;-69
2022/12/28 15:58:26;;;;;;;4.50;1.65;;;10.10;91.10;;;;;;9176484;19;20018;-68
2022/12/28 16:01:31;;;;;;;10.30;2.08;;;10.10;91.10;;;;;;9175537;19;20037;-69
2022/12/28 16:04:35;;;;;;;5.22;1.70;;;10.10;91.10;;;;;;9170120;19;20026;-68
2022/12/28 16:07:39;;;;;;;11.80;1.73;;;10.10;91.00;;;;;;9171658;19;20015;-69
2022/12/28 16:10:45;;;;;;;13.77;4.22;;;10.10;91.00;;;;;;9175046;19;20022;-69
2022/12/28 16:13:52;;;;;;;20.85;6.65;;;10.10;91.00;;;;;;9171090;19;20115;-70
2022/12/28 16:16:56;;;;;;;8.00;4.43;;;10.10;91.00;;;;;;9174360;19;20011;-70
2022/12/28 16:19:59;;;;;;;;;;;10.10;91.00;;;;;;9176176;19;20388;-68
2022/12/28 16:23:03;;;;;;;8.68;3.70;;;10.10;91.00;;;;;;9173114;19;19934;-70
2022/12/28 16:26:10;;;;;;;11.35;4.72;;;10.10;91.00;;;;;;9172497;19;20358;-69
2022/12/28 16:29:13;;;;;;;5.13;1.83;;;10.10;90.90;;;;;;9172171;19;20458;-68
2022/12/28 16:32:17;;;;;;;4.85;2.03;;;10.10;90.90;;;;;;9174514;19;20015;-70
2022/12/28 16:35:21;;;;;;;4.90;2.10;;;10.10;90.90;;;;;;9174072;19;20011;-70
2022/12/28 16:38:25;;;;;;;;;;;10.10;90.90;;;;;;9175010;19;20014;-68
2022/12/28 16:41:31;;;;;;;6.22;1.67;;;10.10;90.90;;;;;;9174028;19;19962;-68
2022/12/28 16:44:40;;;;;;;6.80;2.13;;;10.10;90.90;;;;;;9175420;19;20019;-70
2022/12/28 16:47:44;;;;;;;5.72;1.75;;;10.10;90.80;;;;;;9171629;19;20018;-70
2022/12/28 16:50:58;;;;;;;13.35;2.58;;;10.10;90.80;;;;;;9169394;19;20512;-70